Date,TemperatureHighF,TemperatureAvgF,TemperatureLowF,DewpointHighF,DewpointAvgF,DewpointLowF,HumidityHigh,HumidityAvg,HumidityLow,PressureMaxIn,PressureMinIn,WindSpeedMaxMPH,WindSpeedAvgMPH,GustSpeedMaxMPH,PrecipitationSumIn
2013-1-1,85,81,75,75,73,71,91,78,69,29.97,29.85,15,6,19,0.02
2013-1-2,86,82,78,75,74,72,84,76,65,29.94,29.83,16,8,21,0.00
2013-1-3,86,82,78,76,74,71,87,77,67,29.98,29.88,16,7,21,0.00
2013-1-4,86,81,78,76,74,72,87,80,68,30.03,29.91,16,7,22,0.02
2013-1-5,87,81,77,77,75,74,94,82,68,30.01,29.91,17,7,21,0.21
2013-1-6,84,79,76,77,75,73,95,87,79,29.98,29.86,15,7,22,0.49
2013-1-7,83,79,76,77,75,73,95,88,79,29.96,29.86,18,7,21,0.46
2013-1-8,84,80,78,77,75,73,92,83,76,29.97,29.86,16,9,23,0.06
2013-1-9,85,81,77,76,74,73,93,80,68,30.01,29.89,17,8,23,0.05
2013-1-10,84,80,75,76,74,70,93,82,72,30.00,29.90,17,7,23,0.15
2013-1-11,85,79,74,76,73,72,94,81,70,29.95,29.84,15,6,18,0.16
2013-1-12,84,78,72,76,72,69,96,82,64,29.91,29.82,13,5,19,0.22
2013-1-13,84,80,76,74,72,71,84,78,69,29.94,29.83,12,5,17,0.00
2013-1-14,84,80,77,74,72,71,83,77,66,29.97,29.84,10,5,17,0.00
2013-1-15,80,77,75,76,73,72,95,87,82,29.94,29.84,11,5,19,0.39
2013-1-16,84,78,72,74,72,71,96,81,68,29.96,29.84,10,5,24,0.07
2013-1-17,84,79,74,75,72,69,89,80,70,29.97,29.86,13,5,18,0.02
2013-1-18,84,80,77,75,73,71,85,79,70,30.02,29.88,13,5,22,0.00
2013-1-19,85,80,77,74,72,71,84,78,67,30.00,29.88,19,5,19,0.00
2013-1-20,85,80,77,74,72,71,84,77,65,29.98,29.85,12,5,19,0.00
2013-1-21,85,81,78,75,73,72,83,78,69,29.94,29.84,15,6,21,0.00
2013-1-22,85,81,79,76,74,72,84,78,69,29.97,29.86,15,8,24,0.00
2013-1-23,86,81,78,75,73,72,88,78,66,30.02,29.90,19,6,19,0.00
2013-1-24,85,81,79,75,74,72,86,79,70,30.00,29.89,14,6,21,0.02
2013-1-25,85,80,76,74,73,72,91,79,68,30.00,29.89,12,6,19,0.17
2013-1-26,85,80,77,75,73,71,89,79,68,29.99,29.89,13,6,22,0.01
2013-1-27,86,81,77,75,74,70,88,78,68,30.01,29.90,16,7,19,0.01
2013-1-28,85,80,76,76,74,70,94,80,70,30.06,29.94,15,6,22,0.08
2013-1-29,85,81,78,75,73,72,85,77,69,30.01,29.89,16,7,19,0.00
2013-1-30,85,80,77,74,72,70,88,76,66,29.98,29.87,17,8,22,0.00
2013-1-31,85,81,77,75,73,72,88,78,68,29.96,29.85,16,8,24,0.00
2013-2-1,85,80,75,75,73,71,92,79,69,29.96,29.87,22,7,22,0.14
2013-2-2,85,79,75,75,73,71,93,81,68,29.99,29.86,15,6,21,0.10
2013-2-3,85,80,75,75,73,72,91,82,70,29.93,29.82,14,4,16,0.00
2013-2-4,84,80,78,73,72,68,84,76,67,29.93,29.82,15,6,19,0.00
2013-2-5,85,80,76,73,71,68,81,74,64,29.95,29.85,14,5,16,0.00
2013-2-6,85,80,76,74,72,69,86,76,65,29.95,29.84,11,5,15,0.00
2013-2-7,86,81,78,76,74,72,87,80,66,29.92,29.81,14,6,19,0.00
2013-2-8,85,81,78,75,73,72,83,77,67,29.92,29.83,16,6,19,0.00
2013-2-9,85,80,76,74,72,69,88,76,60,29.94,29.85,17,6,17,0.00
2013-2-10,85,80,74,75,73,71,94,81,67,29.97,29.88,13,5,18,0.04
2013-2-11,86,81,77,74,72,69,84,74,65,30.00,29.90,16,7,23,0.00
2013-2-12,85,79,76,75,72,69,90,77,66,30.00,29.90,19,6,19,0.13
2013-2-13,85,80,77,74,71,69,85,75,63,29.98,29.87,14,6,22,0.02
2013-2-14,86,80,76,73,71,70,87,74,63,29.99,29.88,14,7,21,0.03
2013-2-15,85,81,78,75,72,71,82,76,69,29.99,29.85,21,8,25,0.00
2013-2-16,84,80,78,74,72,70,82,76,68,29.94,29.82,17,8,24,0.00
2013-2-17,86,81,78,74,72,71,82,77,66,29.97,29.84,15,8,23,0.00
2013-2-18,86,81,78,75,73,72,87,77,66,29.98,29.87,16,7,21,0.00
2013-2-19,85,81,79,75,73,72,82,76,68,29.96,29.86,16,9,25,0.00
2013-2-20,86,81,79,75,73,71,83,76,68,29.95,29.80,17,8,25,0.00
2013-2-21,85,81,78,75,73,71,82,76,69,29.95,29.82,22,8,24,0.00
2013-2-22,86,81,78,75,73,71,83,77,68,29.98,29.85,14,7,19,0.00
2013-2-23,86,81,78,75,74,72,87,78,67,29.96,29.84,16,7,23,0.00
2013-2-24,86,81,78,76,74,72,84,78,69,29.95,29.81,17,9,23,0.00
2013-2-25,84,81,78,73,72,71,82,76,67,29.92,29.77,17,8,24,0.00
2013-2-26,86,81,78,76,74,72,84,78,71,29.94,29.81,22,9,27,0.00
2013-2-27,87,82,79,76,75,74,85,80,71,29.95,29.80,19,9,24,0.00
2013-2-28,86,81,79,75,74,73,84,78,66,29.92,29.78,19,10,25,0.00
2013-3-1,85,81,79,75,74,73,83,78,68,29.89,29.77,22,8,25,0.00
2013-3-2,86,81,78,76,74,73,84,79,70,29.88,29.77,16,9,26,0.00
2013-3-3,86,81,79,76,75,74,87,81,70,29.91,29.79,18,8,22,0.00
2013-3-4,84,81,79,77,75,74,88,82,76,29.96,29.83,15,7,25,0.00
2013-3-5,86,81,79,77,75,73,86,80,72,29.98,29.88,20,8,23,0.00
2013-3-6,85,81,78,76,74,73,85,80,73,29.98,29.85,18,8,24,0.00
2013-3-7,85,81,79,76,74,73,86,80,70,29.98,29.84,14,7,22,0.00
2013-3-8,86,81,79,76,74,73,85,79,68,29.98,29.85,16,7,23,0.00
2013-3-9,87,81,78,76,74,73,85,79,71,29.93,29.82,17,8,23,0.00
2013-3-10,86,81,79,76,75,73,85,80,72,29.93,29.79,15,8,24,0.00
2013-3-11,86,81,79,77,74,73,85,80,72,29.91,29.79,17,8,22,0.00
2013-3-12,86,81,79,76,75,74,88,81,71,29.95,29.83,17,8,23,0.00
2013-3-13,86,81,79,77,75,74,87,81,70,29.95,29.82,17,8,22,0.01
2013-3-14,86,81,78,75,74,73,86,80,69,29.91,29.80,15,7,19,0.00
2013-3-15,86,81,78,76,74,72,85,79,69,29.92,29.80,14,7,24,0.00
2013-3-16,85,81,76,75,74,72,93,79,69,29.93,29.82,19,8,23,0.14
2013-3-17,85,81,78,75,73,72,88,77,66,29.98,29.87,17,7,24,0.00
2013-3-18,86,81,79,76,74,72,84,78,67,29.97,29.86,14,8,23,0.00
2013-3-19,86,81,79,75,73,72,82,78,66,29.94,29.80,16,7,23,0.00
2013-3-20,87,81,77,74,73,71,84,77,61,29.90,29.77,13,5,17,0.00
2013-3-21,87,82,77,77,75,73,86,80,68,29.89,29.75,14,5,16,0.00
2013-3-22,87,82,79,78,76,75,89,82,72,29.93,29.80,15,7,18,0.00
2013-3-23,86,82,80,78,76,75,88,83,73,29.96,29.83,17,7,22,0.00
2013-3-24,87,82,80,77,75,74,86,79,69,29.92,29.78,17,8,22,0.00
2013-3-25,87,82,79,76,75,73,84,78,68,29.89,29.76,17,9,24,0.00
2013-3-26,87,82,80,76,74,73,84,77,67,29.92,29.79,23,9,26,0.00
2013-3-27,87,82,79,75,74,73,84,77,67,29.95,29.81,17,8,23,0.00
2013-3-28,88,82,79,77,76,75,86,80,69,29.93,29.82,12,6,21,0.00
2013-3-29,87,82,78,78,77,76,94,83,73,29.96,29.84,15,6,23,0.11
2013-3-30,87,83,80,77,76,75,86,80,70,29.97,29.85,16,8,24,0.00
2013-3-31,87,82,80,75,74,72,83,77,64,29.98,29.86,19,9,27,0.00
2013-4-1,88,82,80,75,73,71,83,73,60,29.96,29.82,21,11,25,0.00
2013-4-2,88,83,80,76,75,74,82,76,64,29.95,29.80,24,10,26,0.00
2013-4-3,87,83,80,76,75,74,84,78,68,29.95,29.82,22,10,28,0.00
2013-4-4,87,82,80,76,74,73,83,78,70,29.98,29.86,16,8,31,0.00
2013-4-5,87,81,79,75,73,72,84,76,65,29.97,29.81,17,8,22,0.00
2013-4-6,87,82,80,76,75,74,85,78,67,29.96,29.80,19,8,25,0.00
2013-4-7,87,83,80,77,76,74,86,80,70,29.93,29.81,17,9,25,0.00
2013-4-8,87,82,80,76,75,74,85,78,67,29.93,29.80,20,9,26,0.00
2013-4-9,87,82,80,76,74,73,85,77,66,29.95,29.80,17,8,26,0.00
2013-4-10,87,82,80,75,74,73,84,77,65,29.93,29.80,16,9,24,0.00
2013-4-11,87,82,77,76,74,73,89,78,65,29.92,29.80,15,8,19,0.01
2013-4-12,86,82,80,76,74,73,84,78,67,29.91,29.80,15,7,23,0.00
2013-4-13,87,83,80,77,75,74,86,78,69,29.90,29.76,17,9,27,0.00
2013-4-14,88,83,80,77,75,73,86,78,62,29.89,29.79,19,10,27,0.00
2013-4-15,86,82,80,77,76,75,88,81,71,29.91,29.82,22,10,26,0.00
2013-4-16,87,82,80,78,76,75,87,82,73,29.92,29.80,17,8,23,0.00
2013-4-17,87,82,80,78,76,75,87,82,73,29.89,29.76,18,8,25,0.00
2013-4-18,87,82,80,78,76,75,89,82,70,29.91,29.78,18,8,24,0.00
2013-4-19,86,82,79,77,76,75,89,83,71,29.95,29.82,17,7,22,0.00
2013-4-20,88,82,79,77,76,75,89,82,67,29.95,29.82,14,6,21,0.00
2013-4-21,88,82,78,76,76,74,90,80,65,29.95,29.83,14,5,16,0.00
2013-4-22,86,81,77,77,75,74,94,83,68,29.93,29.82,13,5,18,0.14
2013-4-23,87,81,77,77,75,73,91,81,69,29.91,29.80,11,5,16,0.00
2013-4-24,88,82,79,77,76,75,89,82,68,29.93,29.80,13,6,18,0.00
2013-4-25,85,81,77,78,76,74,95,86,76,29.95,29.81,12,5,21,0.26
2013-4-26,88,82,77,77,76,74,93,81,66,29.94,29.84,14,6,18,0.02
2013-4-27,87,82,79,77,75,74,86,79,68,29.93,29.80,14,5,19,0.08
2013-4-28,87,82,78,77,75,73,87,80,64,29.91,29.78,15,5,17,0.00
2013-4-29,87,82,76,78,77,75,95,85,73,29.88,29.79,14,6,19,0.14
2013-4-30,88,83,80,78,77,76,89,83,71,29.91,29.80,13,6,19,0.00
2013-5-1,87,83,80,78,77,76,89,83,73,29.91,29.78,14,6,24,0.00
2013-5-2,87,83,80,78,77,76,90,83,70,29.89,29.74,16,6,19,0.00
2013-5-3,89,83,79,78,77,76,91,82,68,29.88,29.75,10,4,13,0.00
2013-5-4,90,84,79,79,78,75,94,82,67,29.84,29.72,11,2,18,0.00
2013-5-5,91,84,79,79,78,76,93,82,66,29.89,29.75,11,3,15,0.00
2013-5-6,86,81,79,79,77,75,96,87,77,29.96,29.84,6,2,12,1.34
2013-5-7,86,81,77,79,76,74,96,86,75,29.98,29.87,13,4,19,0.06
2013-5-8,87,83,80,78,76,74,86,79,72,30.02,29.89,22,8,25,0.00
2013-5-9,87,83,81,77,76,75,84,79,72,30.01,29.89,18,9,25,0.00
2013-5-10,87,83,81,77,76,74,85,79,67,30.00,29.85,16,8,21,0.00
2013-5-11,88,83,80,76,75,74,84,77,64,29.96,29.83,14,6,21,0.00
2013-5-12,88,83,80,77,75,74,85,78,69,29.92,29.80,16,6,22,0.00
2013-5-13,88,84,81,77,76,74,83,77,69,29.93,29.83,19,8,23,0.00
2013-5-14,88,84,81,77,76,75,84,77,66,29.94,29.80,17,8,22,0.00
2013-5-15,88,84,81,78,77,76,87,80,70,29.92,29.80,18,8,23,0.00
2013-5-16,88,83,80,77,76,75,87,79,69,29.91,29.83,15,8,23,0.00
2013-5-17,87,83,81,77,76,74,83,78,71,29.94,29.86,21,8,26,0.00
2013-5-18,88,83,81,77,76,75,86,79,70,29.97,29.84,19,8,24,0.00
2013-5-19,87,84,81,78,77,75,85,80,70,29.92,29.81,17,8,26,0.00
2013-5-20,87,84,81,78,77,76,86,81,72,29.91,29.80,17,8,24,0.00
2013-5-21,84,82,75,78,77,73,96,85,78,29.89,29.77,17,7,21,0.27
2013-5-22,87,83,81,77,76,73,84,78,69,29.90,29.80,18,8,23,0.00
2013-5-23,87,83,81,79,77,75,90,81,74,29.93,29.83,14,7,25,0.03
2013-5-24,88,83,81,77,76,75,84,78,66,29.94,29.84,16,7,22,0.00
2013-5-25,87,83,80,77,76,75,86,79,69,29.94,29.83,19,7,22,0.00
2013-5-26,88,84,81,79,77,76,87,80,72,29.94,29.85,15,8,23,0.00
2013-5-27,89,84,81,79,77,74,86,80,70,29.92,29.81,15,7,23,0.00
2013-5-28,88,84,81,79,77,75,84,79,71,29.91,29.81,17,8,24,0.00
2013-5-29,88,84,80,80,77,75,89,80,72,29.91,29.82,16,7,24,0.03
2013-5-30,88,84,79,79,77,76,92,81,70,29.95,29.81,21,8,29,0.10
2013-5-31,88,84,82,78,77,75,84,78,70,29.93,29.83,17,9,26,0.00
2013-6-1,89,84,82,77,76,76,84,78,68,29.96,29.84,17,9,25,0.00
2013-6-2,88,84,81,77,76,75,85,77,67,29.94,29.84,18,8,25,0.00
2013-6-3,89,84,82,79,77,76,84,79,69,29.94,29.82,22,9,26,0.00
2013-6-4,87,84,81,79,77,76,87,80,70,29.94,29.82,19,8,25,0.00
2013-6-5,88,84,81,78,76,75,84,78,68,29.93,29.78,23,9,27,0.00
2013-6-6,88,84,82,78,77,76,85,80,70,29.94,29.82,17,8,25,0.00
2013-6-7,88,83,81,77,76,75,85,78,67,29.94,29.83,17,7,24,0.00
2013-6-8,88,84,81,77,76,74,83,77,68,29.94,29.82,19,8,28,0.00
2013-6-9,88,84,81,78,76,75,83,77,71,29.94,29.83,17,8,23,0.00
2013-6-10,88,84,81,78,77,76,85,80,72,29.92,29.83,17,8,23,0.00
2013-6-11,88,84,81,78,77,76,86,79,72,29.94,29.84,21,9,26,0.00
2013-6-12,88,84,82,79,77,75,83,78,68,29.96,29.87,19,9,23,0.00
2013-6-13,88,84,80,79,77,76,91,80,69,29.95,29.82,17,7,23,0.08
2013-6-14,88,84,80,79,77,76,88,81,70,29.88,29.79,17,8,25,0.00
2013-6-15,88,84,81,79,78,77,87,82,73,29.92,29.82,20,8,23,0.00
2013-6-16,88,84,82,78,77,75,88,79,70,29.92,29.82,18,8,24,0.00
2013-6-17,88,84,82,78,77,76,84,77,69,29.92,29.84,18,10,26,0.01
2013-6-18,88,84,80,78,77,75,87,79,69,29.92,29.82,19,9,27,0.00
2013-6-19,88,84,81,77,76,74,84,77,68,29.91,29.77,17,8,25,0.00
2013-6-20,88,84,82,78,76,75,85,78,67,29.93,29.82,21,10,28,0.00
2013-6-21,88,84,81,77,76,74,83,77,67,29.95,29.86,19,9,25,0.00
2013-6-22,87,83,80,76,74,73,82,76,64,29.94,29.82,19,7,22,0.00
2013-6-23,88,84,81,77,75,74,83,77,68,29.94,29.84,17,8,24,0.00
2013-6-24,89,84,81,78,76,74,85,78,69,29.95,29.86,14,7,21,0.00
2013-6-25,89,84,81,77,76,75,85,78,67,29.95,29.85,17,7,19,0.00
2013-6-26,88,84,81,78,77,75,85,79,69,29.93,29.82,17,7,22,0.00
2013-6-27,88,84,81,77,76,75,87,78,68,29.92,29.80,18,10,26,0.01
2013-6-28,88,84,82,77,76,75,83,77,68,29.91,29.82,23,10,24,0.00
2013-6-29,88,84,81,77,76,74,84,77,68,29.93,29.80,15,6,19,0.00
2013-6-30,88,83,79,78,77,76,94,82,71,29.91,29.79,15,6,21,0.01
2013-7-1,88,84,82,77,76,75,85,77,68,29.96,29.86,19,9,27,0.00
2013-7-2,88,84,81,76,75,74,83,76,65,30.00,29.88,18,7,22,0.00
2013-7-3,88,83,77,76,75,72,92,77,61,29.96,29.85,14,6,19,0.01
2013-7-4,88,84,81,77,76,74,83,77,68,29.97,29.86,17,8,22,0.00
2013-7-5,89,83,81,77,75,73,84,77,66,29.95,29.86,18,7,21,0.00
2013-7-6,87,83,80,77,75,74,84,78,67,29.92,29.79,14,6,19,0.00
2013-7-7,88,84,81,79,77,74,85,79,72,29.89,29.79,18,8,21,0.00
2013-7-8,88,84,81,79,78,77,88,81,70,29.96,29.84,16,7,23,0.00
2013-7-9,89,84,81,78,77,76,86,79,68,29.96,29.84,16,6,21,0.00
2013-7-10,90,84,80,79,77,75,91,80,68,29.94,29.86,15,6,19,0.01
2013-7-11,89,84,81,78,77,76,86,79,67,29.95,29.85,16,8,22,0.00
2013-7-12,89,84,81,77,77,75,85,78,67,29.95,29.85,13,6,19,0.00
2013-7-13,89,84,80,77,76,75,85,77,63,29.93,29.82,15,6,18,0.00
2013-7-14,89,84,81,78,76,75,84,77,68,29.91,29.78,18,8,22,0.00
2013-7-15,87,84,82,79,77,76,85,79,72,29.90,29.80,18,9,23,0.00
2013-7-16,88,83,82,79,77,75,87,82,72,29.94,29.84,18,9,24,0.00
2013-7-17,89,84,81,79,78,76,90,82,71,29.95,29.84,19,8,28,0.00
2013-7-18,88,84,80,79,78,77,89,81,71,29.95,29.84,16,7,26,0.00
2013-7-19,88,83,80,79,77,76,91,83,76,29.96,29.87,16,8,24,0.16
2013-7-20,89,84,82,78,76,75,85,77,69,29.95,29.86,23,10,26,0.00
2013-7-21,88,83,79,78,76,73,86,78,67,29.94,29.84,16,7,23,0.00
2013-7-22,88,84,78,79,77,76,94,81,71,29.96,29.85,17,7,21,0.14
2013-7-23,89,84,82,79,78,76,86,80,70,29.94,29.83,16,8,23,0.00
2013-7-24,89,84,82,79,78,77,86,80,71,29.92,29.82,18,9,25,0.00
2013-7-25,88,84,81,79,77,75,85,79,70,29.97,29.85,17,8,24,0.00
2013-7-26,89,84,82,78,77,75,84,79,69,29.97,29.86,19,9,27,0.00
2013-7-27,83,80,74,78,76,72,97,87,79,30.00,29.86,16,6,21,1.38
2013-7-28,88,82,79,78,76,76,93,82,69,29.94,29.86,13,5,17,0.03
2013-7-29,88,83,80,78,77,76,88,81,73,29.97,29.87,16,7,22,0.00
2013-7-30,88,84,80,79,78,76,90,82,71,30.00,29.87,16,7,21,0.01
2013-7-31,88,84,81,79,77,76,89,81,69,29.97,29.84,16,6,18,0.00
2013-8-1,88,84,81,79,77,76,88,81,70,29.94,29.83,20,7,25,0.00
2013-8-2,88,84,82,79,78,77,88,82,73,29.98,29.87,14,7,22,0.00
2013-8-3,87,83,78,81,79,76,95,88,80,29.99,29.86,15,6,21,0.50
2013-8-4,88,84,81,80,79,77,91,84,75,29.97,29.82,13,6,19,0.00
2013-8-5,88,84,81,79,78,77,92,84,70,29.96,29.82,13,5,16,0.00
2013-8-6,88,84,81,79,77,74,90,80,65,29.92,29.79,14,6,17,0.00
2013-8-7,88,84,81,79,77,76,87,80,69,29.88,29.75,15,6,18,0.00
2013-8-8,93,85,79,80,77,75,93,80,61,29.83,29.70,9,3,17,0.00
2013-8-9,87,83,81,79,77,76,89,82,73,29.86,29.76,16,6,22,0.00
2013-8-10,88,84,80,78,77,75,88,80,68,29.88,29.76,14,6,19,0.00
2013-8-11,89,83,78,78,77,74,94,82,69,29.88,29.78,14,5,19,0.09
2013-8-12,86,82,76,79,77,74,94,85,74,29.90,29.79,14,6,19,0.09
2013-8-13,88,84,81,78,77,76,86,80,70,29.91,29.81,16,7,22,0.00
2013-8-14,89,84,80,80,78,76,90,82,70,29.91,29.78,15,8,27,0.04
2013-8-15,89,84,82,79,78,77,86,81,70,29.91,29.81,16,8,24,0.00
2013-8-16,89,84,80,78,76,72,87,77,57,29.90,29.79,13,6,18,0.00
2013-8-17,89,84,80,78,76,75,86,78,66,29.90,29.79,17,7,20,0.00
2013-8-18,90,85,81,78,77,75,85,77,63,29.91,29.79,13,6,18,0.00
2013-8-19,90,84,79,79,77,75,92,79,64,29.87,29.74,11,4,18,0.00
2013-8-20,92,85,82,80,78,76,86,78,61,29.89,29.75,14,6,19,0.00
2013-8-21,90,85,80,79,77,75,91,78,66,29.91,29.80,17,8,24,0.06
2013-8-22,89,85,82,80,78,77,86,80,69,29.88,29.76,16,7,19,0.00
2013-8-23,90,85,82,78,77,76,85,77,67,29.88,29.77,15,8,23,0.00
2013-8-24,90,85,80,78,76,73,84,76,66,29.92,29.83,14,6,23,0.00
2013-8-25,89,84,81,79,78,74,86,80,70,29.91,29.80,13,6,18,0.00
2013-8-26,89,85,82,79,77,76,85,78,67,29.91,29.78,16,6,18,0.00
2013-8-27,90,85,81,79,77,76,87,79,63,29.91,29.78,12,4,18,0.00
2013-8-28,90,85,82,80,78,77,87,80,68,29.92,29.81,14,6,18,0.00
2013-8-29,92,86,82,80,77,73,87,75,60,29.91,29.79,11,5,19,0.00
2013-8-30,91,86,82,79,76,72,87,74,56,29.92,29.80,13,5,17,0.00
2013-8-31,92,84,77,79,77,75,94,80,58,29.91,29.79,13,3,15,0.03
2013-9-1,91,85,81,79,77,74,86,76,59,29.89,29.77,14,5,17,0.00
2013-9-2,88,81,76,80,77,75,95,87,71,29.91,29.75,8,2,19,0.34
2013-9-3,89,81,74,79,76,73,97,87,69,29.86,29.72,9,2,15,0.54
2013-9-4,93,84,78,81,78,76,94,82,63,29.88,29.75,7,2,11,0.00
2013-9-5,90,84,77,82,79,75,96,85,73,29.89,29.74,9,2,14,0.41
2013-9-6,92,86,82,81,78,74,88,77,56,29.88,29.73,13,4,17,0.00
2013-9-7,92,86,83,81,78,72,87,77,53,29.90,29.76,10,5,18,0.00
2013-9-8,89,85,83,80,79,78,88,82,73,29.87,29.75,14,6,18,0.00
2013-9-9,90,86,83,80,78,76,86,79,70,29.91,29.78,16,8,24,0.00
2013-9-10,89,85,83,79,77,76,84,78,67,29.93,29.82,17,7,21,0.00
2013-9-11,90,84,80,79,78,73,89,81,67,29.90,29.79,13,5,16,0.00
2013-9-12,92,85,81,79,77,74,89,78,59,29.84,29.72,11,3,13,0.00
2013-9-13,92,84,78,79,77,73,92,80,58,29.79,29.67,8,2,12,0.00
2013-9-14,90,85,82,80,78,76,86,79,68,29.84,29.73,14,5,19,0.00
2013-9-15,91,86,83,82,79,78,94,80,69,29.87,29.76,19,8,24,0.12
2013-9-16,89,85,83,80,78,77,86,80,71,29.90,29.74,15,8,26,0.00
2013-9-17,89,84,79,80,79,77,95,83,73,29.89,29.75,14,5,17,0.18
2013-9-18,89,85,79,81,79,76,94,82,70,29.87,29.74,18,6,26,0.12
2013-9-19,91,86,80,82,80,76,90,83,69,29.90,29.78,11,5,19,0.00
2013-9-20,95,86,82,81,80,79,91,82,63,29.89,29.76,11,4,16,0.00
2013-9-21,93,86,80,81,79,77,91,80,62,29.84,29.73,10,3,15,0.00
2013-9-22,92,86,83,81,79,77,87,79,67,29.87,29.75,13,5,22,0.00
2013-9-23,92,86,83,82,80,78,87,81,69,29.93,29.80,14,6,21,0.00
2013-9-24,93,86,83,80,78,76,84,77,64,29.90,29.76,13,7,21,0.00
2013-9-25,92,86,83,80,78,77,86,78,66,29.86,29.72,14,6,22,0.00
2013-9-26,93,86,83,81,78,77,86,79,65,29.85,29.74,19,6,19,0.00
2013-9-27,92,86,83,80,78,76,87,79,61,29.89,29.75,15,6,22,0.00
2013-9-28,92,86,83,80,78,77,85,79,67,29.91,29.77,13,6,22,0.00
2013-9-29,92,86,82,81,79,78,86,80,64,29.90,29.77,13,5,21,0.00
2013-9-30,92,86,83,80,78,76,84,77,65,29.90,29.79,14,6,23,0.00
2013-10-1,92,86,83,79,78,76,84,75,64,29.93,29.81,14,6,21,0.00
2013-10-2,93,86,81,78,77,76,85,75,60,29.88,29.76,11,5,18,0.00
2013-10-3,92,85,82,79,78,76,86,78,62,29.89,29.73,13,5,19,0.00
2013-10-4,89,84,80,80,79,77,93,83,73,29.90,29.79,11,4,16,0.09
2013-10-5,93,85,81,80,79,77,90,81,64,29.91,29.76,10,4,15,0.00
2013-10-6,92,86,82,80,78,77,89,79,64,29.89,29.77,11,5,18,0.00
2013-10-7,92,86,82,80,78,76,87,79,66,29.91,29.78,13,5,19,0.00
2013-10-8,91,85,82,81,79,78,89,81,67,29.91,29.77,10,5,16,0.00
2013-10-9,91,85,82,80,78,76,87,79,69,29.90,29.78,12,6,21,0.00
2013-10-10,92,85,81,78,76,74,83,75,61,29.89,29.75,15,5,17,0.00
2013-10-11,91,84,80,79,77,76,91,79,67,29.86,29.75,18,5,18,0.02
2013-10-12,91,85,81,79,78,76,87,78,67,29.86,29.74,16,6,21,0.00
2013-10-13,92,86,82,80,78,77,85,78,63,29.86,29.74,13,5,19,0.00
2013-10-14,92,85,82,79,78,76,85,78,64,29.85,29.73,14,6,21,0.00
2013-10-15,92,85,82,80,78,76,86,78,67,29.88,29.75,15,6,18,0.00
2013-10-16,93,86,82,79,78,77,87,79,61,29.87,29.74,11,4,16,0.00
2013-10-17,93,85,82,80,79,76,89,81,64,29.90,29.76,10,3,14,0.00
2013-10-18,92,84,78,79,77,75,89,79,64,29.91,29.78,13,3,18,0.00
2013-10-19,92,85,80,79,77,75,87,77,61,29.90,29.78,10,4,15,0.00
2013-10-20,93,86,82,79,78,76,85,77,61,29.91,29.75,12,4,16,0.00
2013-10-21,90,84,76,81,78,73,95,82,72,29.90,29.75,12,4,19,0.53
2013-10-22,90,85,81,79,77,76,86,79,68,29.87,29.75,14,6,19,0.00
2013-10-23,91,85,80,79,78,76,93,80,65,29.87,29.74,9,4,15,0.07
2013-10-24,91,84,82,79,78,77,87,81,68,29.89,29.80,13,5,21,0.00
2013-10-25,90,85,82,79,78,76,85,78,68,29.92,29.79,16,7,21,0.00
2013-10-26,92,85,82,80,78,77,86,79,62,29.88,29.77,13,6,18,0.00
2013-10-27,92,85,81,80,78,76,89,79,63,29.90,29.77,16,6,22,0.01
2013-10-28,92,84,82,78,76,74,84,76,61,29.92,29.80,11,5,19,0.00
2013-10-29,88,83,79,81,78,75,94,83,72,29.89,29.76,12,4,16,0.30
2013-10-30,90,82,77,79,77,75,94,85,67,29.89,29.77,13,3,16,0.46
2013-10-31,81,78,74,78,75,73,96,91,83,29.87,29.74,12,2,21,0.96
2013-11-1,84,78,72,78,75,72,98,91,78,29.85,29.70,14,3,16,2.14
2013-11-2,88,82,79,80,78,75,93,86,76,29.88,29.74,8,3,16,0.07
2013-11-3,86,79,75,78,76,74,96,91,73,29.92,29.78,4,1,9,0.24
2013-11-4,91,81,73,79,76,72,98,86,66,29.87,29.75,7,1,11,0.03
2013-11-5,90,82,76,79,77,75,97,84,65,29.86,29.75,8,2,14,0.01
2013-11-6,90,82,78,77,75,73,89,80,60,29.86,29.74,10,3,15,0.00
2013-11-7,90,83,80,79,76,74,87,81,69,29.86,29.75,12,4,16,0.00
2013-11-8,89,83,80,79,77,76,89,82,72,29.89,29.75,13,4,18,0.00
2013-11-9,90,84,81,79,77,76,86,80,68,29.91,29.80,13,6,24,0.00
2013-11-10,90,84,81,79,77,75,85,79,68,29.90,29.79,11,5,19,0.02
2013-11-11,88,83,77,79,77,74,94,81,71,29.92,29.80,15,6,19,0.09
2013-11-12,89,84,81,79,77,76,87,81,71,29.88,29.76,13,7,19,0.01
2013-11-13,90,84,81,79,77,76,86,79,69,29.87,29.76,15,6,23,0.00
2013-11-14,90,84,81,79,77,76,86,79,68,29.91,29.78,14,5,19,0.00
2013-11-15,87,81,76,80,77,75,97,87,74,29.92,29.77,15,4,19,0.70
2013-11-16,90,83,78,79,76,75,92,81,67,29.90,29.78,10,4,15,0.00
2013-11-17,91,82,74,77,75,73,96,80,60,29.86,29.73,9,2,10,0.00
2013-11-18,91,80,74,78,75,72,96,84,58,29.82,29.70,6,1,9,0.07
2013-11-19,92,80,71,77,73,70,98,80,51,29.83,29.72,5,1,9,0.01
2013-11-20,89,82,74,78,76,72,95,82,65,29.91,29.80,12,3,15,0.00
2013-11-21,89,84,81,80,77,76,87,80,65,29.93,29.82,11,5,17,0.00
2013-11-22,88,82,77,79,76,74,94,83,70,29.91,29.79,10,3,16,0.08
2013-11-23,88,83,79,78,76,73,89,79,68,29.86,29.75,11,4,16,0.00
2013-11-24,89,83,78,78,76,73,88,79,66,29.86,29.77,13,3,14,0.00
2013-11-25,90,83,79,79,76,74,88,81,69,29.89,29.80,13,5,22,0.00
2013-11-26,88,82,78,78,76,73,94,83,72,29.89,29.77,13,5,19,0.15
2013-11-27,89,82,76,78,76,72,93,82,65,29.87,29.75,11,5,21,0.07
2013-11-28,90,83,79,77,74,72,84,76,65,29.91,29.78,17,5,21,0.00
2013-11-29,88,82,76,75,74,71,91,76,64,29.92,29.81,14,4,18,0.06
2013-11-30,88,81,75,77,74,72,90,80,67,29.91,29.77,12,2,15,0.06
2013-12-1,89,81,74,76,74,72,92,80,63,29.88,29.79,8,2,13,0.00
2013-12-2,90,82,76,79,76,73,91,80,67,29.87,29.74,9,3,14,0.02
2013-12-3,88,83,80,79,78,76,89,83,73,29.93,29.83,14,4,18,0.00
2013-12-4,88,83,81,79,77,76,88,82,72,29.93,29.83,13,5,19,0.00
2013-12-5,89,83,80,77,76,74,86,78,66,29.94,29.84,14,5,18,0.00
2013-12-6,89,82,80,76,75,73,84,77,66,29.94,29.84,13,5,18,0.00
2013-12-7,89,82,79,77,74,71,86,76,65,29.95,29.84,12,4,16,0.00
2013-12-8,88,80,74,78,74,72,94,84,65,29.94,29.84,8,3,18,0.13
2013-12-9,88,82,79,78,76,74,87,82,73,29.96,29.86,14,5,19,0.02
2013-12-10,86,82,79,78,76,73,90,82,72,29.98,29.87,12,6,22,0.01
2013-12-11,88,82,79,78,75,73,87,77,68,29.97,29.86,13,5,22,0.00
2013-12-12,86,82,79,79,75,73,91,80,73,29.94,29.83,13,6,19,0.06
2013-12-13,87,82,79,77,75,73,86,79,68,29.92,29.81,16,6,21,0.00
2013-12-14,88,83,80,77,75,74,85,79,67,29.94,29.84,18,7,26,0.00
2013-12-15,85,81,78,79,75,72,95,83,75,29.96,29.84,14,6,25,0.28
2013-12-16,88,82,79,77,75,73,86,78,68,29.96,29.84,13,6,21,0.00
2013-12-17,88,82,79,76,74,72,84,77,67,29.96,29.83,15,6,21,0.00
2013-12-18,89,82,76,77,74,71,88,78,66,29.95,29.84,14,5,21,0.00
2013-12-19,88,81,75,75,74,71,93,79,64,29.96,29.85,14,5,22,0.09
2013-12-20,87,80,72,76,74,70,96,82,65,29.94,29.83,14,5,21,0.24
2013-12-21,87,80,74,76,74,72,95,81,67,29.94,29.84,14,5,17,0.11
2013-12-22,85,80,76,77,74,71,90,82,67,29.98,29.87,11,5,17,0.06
2013-12-23,87,81,77,76,74,72,89,79,67,29.97,29.85,8,4,17,0.00
2013-12-24,89,79,72,75,72,71,97,82,61,29.93,29.82,8,2,13,0.00
2013-12-25,89,79,71,76,73,70,97,83,62,29.92,29.82,11,2,17,0.00
2013-12-26,87,81,76,78,75,73,93,82,70,29.98,29.85,12,4,16,0.00
2013-12-27,87,82,78,78,76,73,91,82,70,30.00,29.89,16,6,17,0.02
2013-12-28,88,82,79,77,75,73,86,79,67,29.99,29.88,12,5,19,0.00
2013-12-29,87,81,78,77,74,73,87,80,68,29.95,29.83,20,6,21,0.02
2013-12-30,87,81,78,78,76,73,91,82,71,29.96,29.86,15,6,17,0.02
2013-12-31,89,82,79,77,75,73,86,79,66,29.98,29.88,17,6,23,0.01
2014-1-1,88,82,75,76,74,72,95,79,66,29.96,29.84,17,6,25,0.57
2014-1-2,83,76,73,78,74,71,97,93,80,29.93,29.82,14,5,22,1.91